Ferry Katsuragi — JI3611 — position and weather

sailwx.info

Track history (hours):
 
Tides and Currents Weather Stations Pressure Air Temp Water Temp Dewpoint Dewpoint Depression Visibility Wind Speed Wind Dir Waves Ship Positions

Ferry Katsuragi

Last reported at 2014-Aug-21 05:19 UTC. Time now 2014-Aug-21 06:22 UTC.
Position N 34°12' E 134°58'.

Length 108 m; draft 4 m.

Type: Passenger vessel. MMSI: 431301245.

Date/timePositionNaut miles runAvg speedWind from/ knotsBaromVisibWave heightAir tempDewpointWater temp
2014-Aug-21 05:19N 34°12' E 134°58'911.5
2014-Aug-21 04:33N 34°13' E 135°09'7 6.6
2014-Aug-21 03:33N 34°11' E 135°01'9 2.9
2014-Aug-21 00:33N 34°08' E 134°51'1515.2
2014-Aug-20 23:34N 34°13' E 135°08'2 1.8
2014-Aug-20 22:33N 34°13' E 135°06'18 5.2
2014-Aug-20 19:05N 34°06' E 134°46'914.6
2014-Aug-20 18:28N 34°10' E 134°56'1112.3
2014-Aug-20 17:34N 34°13' E 135°09'0 0.0
2014-Aug-20 16:34N 34°13' E 135°09'0 0.0
2014-Aug-20 15:34N 34°13' E 135°09'6 5.6
2014-Aug-20 14:33N 34°11' E 135°02'11 3.6
2014-Aug-20 11:27N 34°08' E 134°49'1314.0
2014-Aug-20 10:33N 34°12' E 135°04'4 4.4
2014-Aug-20 09:34N 34°13' E 135°09'1714.6
2014-Aug-20 08:24N 34°07' E 134°49'2 1.1
2014-Aug-20 06:04N 34°07' E 134°46'1014.4
2014-Aug-20 05:23N 34°11' E 134°57'1011.4
2014-Aug-20 04:33N 34°13' E 135°09'6 6.0
2014-Aug-20 03:33N 34°12' E 135°02'3 0.8
2014-Aug-20 00:09N 34°11' E 134°58'814.1
2014-Aug-19 23:34N 34°13' E 135°08'2 2.1
2014-Aug-19 22:33N 34°13' E 135°06'18 5.3
2014-Aug-19 19:09N 34°06' E 134°46'914.3
2014-Aug-19 18:32N 34°10' E 134°55'1111.7
2014-Aug-19 17:33N 34°13' E 135°09'0 0.0
2014-Aug-19 16:33N 34°13' E 135°09'0 0.0
2014-Aug-19 15:33N 34°13' E 135°09'6 5.5
2014-Aug-19 14:33N 34°12' E 135°02'12 3.8
2014-Aug-19 11:28N 34°08' E 134°49'1213.2
2014-Aug-19 10:33N 34°12' E 135°03'5 5.1
2014-Aug-19 09:34N 34°13' E 135°09'25 7.9
2014-Aug-19 06:27N 34°05' E 134°41'1314.8
2014-Aug-19 05:33N 34°10' E 134°56'1111.2
2014-Aug-19 04:34N 34°13' E 135°09'7 6.7
2014-Aug-19 03:30N 34°12' E 135°00'4 1.1
2014-Aug-19 00:16N 34°09' E 134°57'1014.2
2014-Aug-18 23:33N 34°13' E 135°08'2 2.1
2014-Aug-18 22:34N 34°13' E 135°06'1615.7
2014-Aug-18 21:32N 34°06' E 134°48'7 2.2
2014-Aug-18 18:32N 34°09' E 134°55'1212.4
2014-Aug-18 17:33N 34°13' E 135°09'0 0.0
2014-Aug-18 16:33N 34°13' E 135°09'0 0.0
2014-Aug-18 15:33N 34°13' E 135°09'5 5.4
2014-Aug-18 14:33N 34°12' E 135°02'14 4.8
2014-Aug-18 11:33N 34°07' E 134°46'1514.7
2014-Aug-18 10:33N 34°12' E 135°02'5 5.2
2014-Aug-18 09:33N 34°13' E 135°09'24 7.7
2014-Aug-18 06:24N 34°05' E 134°41'1314.6
2014-Aug-18 05:32N 34°10' E 134°55'1212.1
2014-Aug-18 04:33N 34°13' E 135°09'5 5.4
2014-Aug-18 03:33N 34°12' E 135°02'6 1.8
2014-Aug-18 00:16N 34°10' E 134°56'1 0.1
2014-Aug-17 18:28N 34°10' E 134°56'1111.9
2014-Aug-17 17:33N 34°13' E 135°09'0 0.0
2014-Aug-17 16:33N 34°13' E 135°09'0 0.0
2014-Aug-17 15:33N 34°13' E 135°09'5 5.2
2014-Aug-17 14:33N 34°12' E 135°02'14 4.7
2014-Aug-17 11:29N 34°06' E 134°46'1415.2
2014-Aug-17 10:33N 34°12' E 135°02'5 5.4
2014-Aug-17 09:34N 34°13' E 135°09'10 2.3
2014-Aug-17 05:19N 34°10' E 134°57'1013.1
2014-Aug-17 04:33N 34°13' E 135°09'5 5.1
2014-Aug-17 03:33N 34°12' E 135°03'13 4.3
2014-Aug-17 00:33N 34°07' E 134°49'1717.3
2014-Aug-16 23:33N 34°13' E 135°08'1 1.4
2014-Aug-16 22:33N 34°13' E 135°06'19 5.5
2014-Aug-16 19:08N 34°06' E 134°45'1114.6
2014-Aug-16 18:23N 34°11' E 134°57'1011.8
2014-Aug-16 17:33N 34°13' E 135°09'0 0.0
2014-Aug-16 16:33N 34°13' E 135°09'0 0.0
2014-Aug-16 15:33N 34°13' E 135°09'4 4.5
2014-Aug-16 14:34N 34°12' E 135°03'13 4.1
2014-Aug-16 11:21N 34°07' E 134°48'1215.5
2014-Aug-16 10:33N 34°12' E 135°02'6 5.6
2014-Aug-16 09:33N 34°13' E 135°09'7 1.5
2014-Aug-16 05:09N 34°12' E 135°00'711.3
2014-Aug-16 04:33N 34°13' E 135°09'6 6.1
2014-Aug-16 03:33N 34°11' E 135°01'10 3.2
2014-Aug-16 00:29N 34°08' E 134°51'1516.4
2014-Aug-15 23:33N 34°13' E 135°08'2 2.0
2014-Aug-15 22:33N 34°13' E 135°05'19 5.9
2014-Aug-15 19:16N 34°06' E 134°43'1014.1
2014-Aug-15 18:33N 34°09' E 134°55'1212.0
2014-Aug-15 17:34N 34°13' E 135°09'10 9.8
2014-Aug-15 16:33N 34°10' E 134°57'11 4.4
2014-Aug-15 14:03N 34°05' E 134°45'1214.8
2014-Aug-15 13:16N 34°10' E 134°58'913.0
2014-Aug-15 12:33N 34°13' E 135°09'8 7.9
2014-Aug-15 11:32N 34°09' E 134°60'3 0.8
2014-Aug-15 08:11N 34°09' E 134°57'1016.0
2014-Aug-15 07:33N 34°13' E 135°08'1 0.6
2014-Aug-15 06:33N 34°13' E 135°09'8 1.8
2014-Aug-15 02:14N 34°10' E 134°60'811.8
2014-Aug-15 01:34N 34°13' E 135°09'5 4.7
2014-Aug-15 00:33N 34°13' E 135°03'7 2.2
2014-Aug-14 21:21N 34°09' E 134°56'1114.4
2014-Aug-14 20:33N 34°13' E 135°09'7 7.1
2014-Aug-14 19:33N 34°11' E 135°00'9 3.0
2014-Aug-14 16:32N 34°08' E 134°50'1515.7
2014-Aug-14 15:33N 34°13' E 135°08'19 4.8
2014-Aug-14 11:33N 34°06' E 134°46'1515.0
2014-Aug-14 10:33N 34°12' E 135°02'5 5.2
2014-Aug-14 09:33N 34°13' E 135°09'21 6.1
2014-Aug-14 06:08N 34°05' E 134°45'1116.9
2014-Aug-14 05:30N 34°12' E 134°56'1111.4
2014-Aug-14 04:33N 34°13' E 135°09'5 5.4
2014-Aug-14 03:33N 34°12' E 135°02'11 3.7
2014-Aug-14 00:31N 34°08' E 134°49'1617.0
2014-Aug-13 23:33N 34°13' E 135°08'0 0.4
2014-Aug-13 22:33N 34°13' E 135°08'24 7.8
2014-Aug-13 19:28N 34°04' E 134°40'1514.3
2014-Aug-13 18:24N 34°10' E 134°57'1011.8
2014-Aug-13 17:33N 34°13' E 135°09'10 9.7
2014-Aug-13 16:32N 34°10' E 134°57'15 6.6
2014-Aug-13 14:18N 34°04' E 134°41'2514.2
2014-Aug-13 12:33N 34°13' E 135°09'7 6.9
2014-Aug-13 11:33N 34°12' E 135°00'10 3.3
2014-Aug-13 08:32N 34°07' E 134°50'1616.5
2014-Aug-13 07:34N 34°13' E 135°08'0 0.2
2014-Aug-13 06:33N 34°13' E 135°08'11 2.6
2014-Aug-13 02:26N 34°10' E 134°56'1112.5
2014-Aug-13 01:33N 34°13' E 135°09'5 5.3
2014-Aug-13 00:33N 34°11' E 135°03'7 2.2
2014-Aug-12 21:22N 34°09' E 134°54'1215.4
2014-Aug-12 20:33N 34°13' E 135°09'5 4.8
2014-Aug-12 19:33N 34°12' E 135°03'10 3.4
2014-Aug-12 16:30N 34°09' E 134°51'1515.3
2014-Aug-12 15:33N 34°13' E 135°08'4 4.3
2014-Aug-12 14:33N 34°12' E 135°03'14 4.6
2014-Aug-12 11:29N 34°06' E 134°47'1314.4
2014-Aug-12 10:33N 34°12' E 135°02'5 5.4
2014-Aug-12 09:33N 34°13' E 135°09'11 2.7
2014-Aug-12 05:28N 34°09' E 134°56'1112.0
2014-Aug-12 04:33N 34°13' E 135°09'6 6.0
2014-Aug-12 03:34N 34°11' E 135°02'19 7.9
2014-Aug-12 01:09N 34°04' E 134°40'1216.0
2014-Aug-12 00:22N 34°09' E 134°54'1215.4
2014-Aug-11 23:33N 34°13' E 135°08'2 2.3
2014-Aug-11 22:33N 34°13' E 135°06'18 5.0
2014-Aug-11 19:04N 34°06' E 134°46'914.8
2014-Aug-11 18:28N 34°09' E 134°56'1112.3
2014-Aug-11 17:33N 34°13' E 135°09'0 0.0
2014-Aug-11 16:33N 34°13' E 135°09'0 0.0
2014-Aug-11 15:33N 34°13' E 135°09'5 5.4
2014-Aug-11 14:33N 34°12' E 135°02'15 5.0
2014-Aug-11 11:33N 34°06' E 134°46'1515.4
2014-Aug-11 10:33N 34°12' E 135°03'4 4.5
2014-Aug-11 09:34N 34°13' E 135°08'20 5.8
2014-Aug-11 06:05N 34°06' E 134°45'1114.8
2014-Aug-11 05:21N 34°09' E 134°58'  
Track history (hours):
 
Tides and Currents Weather Stations Pressure Air Temp Water Temp Dewpoint Dewpoint Depression Visibility Wind Speed Wind Dir Waves Ship Positions

Ferry Katsuragi

Last reported at 2014-Aug-21 05:19 UTC. Time now 2014-Aug-21 06:22 UTC.
Position N 34°12' E 134°58'.

Length 108 m; draft 4 m.

Type: Passenger vessel. MMSI: 431301245.

Date/timePositionNaut miles runAvg speedWind from/ knotsBaromVisibWave heightAir tempDewpointWater temp
2014-Aug-21 05:19N 34°12' E 134°58'911.5
2014-Aug-21 04:33N 34°13' E 135°09'7 6.6
2014-Aug-21 03:33N 34°11' E 135°01'9 2.9
2014-Aug-21 00:33N 34°08' E 134°51'1515.2
2014-Aug-20 23:34N 34°13' E 135°08'2 1.8
2014-Aug-20 22:33N 34°13' E 135°06'18 5.2
2014-Aug-20 19:05N 34°06' E 134°46'914.6
2014-Aug-20 18:28N 34°10' E 134°56'1112.3
2014-Aug-20 17:34N 34°13' E 135°09'0 0.0
2014-Aug-20 16:34N 34°13' E 135°09'0 0.0
2014-Aug-20 15:34N 34°13' E 135°09'6 5.6
2014-Aug-20 14:33N 34°11' E 135°02'11 3.6
2014-Aug-20 11:27N 34°08' E 134°49'1314.0
2014-Aug-20 10:33N 34°12' E 135°04'4 4.4
2014-Aug-20 09:34N 34°13' E 135°09'1714.6
2014-Aug-20 08:24N 34°07' E 134°49'2 1.1
2014-Aug-20 06:04N 34°07' E 134°46'1014.4
2014-Aug-20 05:23N 34°11' E 134°57'1011.4
2014-Aug-20 04:33N 34°13' E 135°09'6 6.0
2014-Aug-20 03:33N 34°12' E 135°02'3 0.8
2014-Aug-20 00:09N 34°11' E 134°58'814.1
2014-Aug-19 23:34N 34°13' E 135°08'2 2.1
2014-Aug-19 22:33N 34°13' E 135°06'18 5.3
2014-Aug-19 19:09N 34°06' E 134°46'914.3
2014-Aug-19 18:32N 34°10' E 134°55'1111.7
2014-Aug-19 17:33N 34°13' E 135°09'0 0.0
2014-Aug-19 16:33N 34°13' E 135°09'0 0.0
2014-Aug-19 15:33N 34°13' E 135°09'6 5.5
2014-Aug-19 14:33N 34°12' E 135°02'12 3.8
2014-Aug-19 11:28N 34°08' E 134°49'1213.2
2014-Aug-19 10:33N 34°12' E 135°03'5 5.1
2014-Aug-19 09:34N 34°13' E 135°09'25 7.9
2014-Aug-19 06:27N 34°05' E 134°41'1314.8
2014-Aug-19 05:33N 34°10' E 134°56'1111.2
2014-Aug-19 04:34N 34°13' E 135°09'7 6.7
2014-Aug-19 03:30N 34°12' E 135°00'4 1.1
2014-Aug-19 00:16N 34°09' E 134°57'1014.2
2014-Aug-18 23:33N 34°13' E 135°08'2 2.1
2014-Aug-18 22:34N 34°13' E 135°06'1615.7
2014-Aug-18 21:32N 34°06' E 134°48'7 2.2
2014-Aug-18 18:32N 34°09' E 134°55'1212.4
2014-Aug-18 17:33N 34°13' E 135°09'0 0.0
2014-Aug-18 16:33N 34°13' E 135°09'0 0.0
2014-Aug-18 15:33N 34°13' E 135°09'5 5.4
2014-Aug-18 14:33N 34°12' E 135°02'14 4.8
2014-Aug-18 11:33N 34°07' E 134°46'1514.7
2014-Aug-18 10:33N 34°12' E 135°02'5 5.2
2014-Aug-18 09:33N 34°13' E 135°09'24 7.7
2014-Aug-18 06:24N 34°05' E 134°41'1314.6
2014-Aug-18 05:32N 34°10' E 134°55'1212.1
2014-Aug-18 04:33N 34°13' E 135°09'5 5.4
2014-Aug-18 03:33N 34°12' E 135°02'6 1.8
2014-Aug-18 00:16N 34°10' E 134°56'1 0.1
2014-Aug-17 18:28N 34°10' E 134°56'1111.9
2014-Aug-17 17:33N 34°13' E 135°09'0 0.0
2014-Aug-17 16:33N 34°13' E 135°09'0 0.0
2014-Aug-17 15:33N 34°13' E 135°09'5 5.2
2014-Aug-17 14:33N 34°12' E 135°02'14 4.7
2014-Aug-17 11:29N 34°06' E 134°46'1415.2
2014-Aug-17 10:33N 34°12' E 135°02'5 5.4
2014-Aug-17 09:34N 34°13' E 135°09'10 2.3
2014-Aug-17 05:19N 34°10' E 134°57'1013.1
2014-Aug-17 04:33N 34°13' E 135°09'5 5.1
2014-Aug-17 03:33N 34°12' E 135°03'13 4.3
2014-Aug-17 00:33N 34°07' E 134°49'1717.3
2014-Aug-16 23:33N 34°13' E 135°08'1 1.4
2014-Aug-16 22:33N 34°13' E 135°06'19 5.5
2014-Aug-16 19:08N 34°06' E 134°45'1114.6
2014-Aug-16 18:23N 34°11' E 134°57'1011.8
2014-Aug-16 17:33N 34°13' E 135°09'0 0.0
2014-Aug-16 16:33N 34°13' E 135°09'0 0.0
2014-Aug-16 15:33N 34°13' E 135°09'4 4.5
2014-Aug-16 14:34N 34°12' E 135°03'13 4.1
2014-Aug-16 11:21N 34°07' E 134°48'1215.5
2014-Aug-16 10:33N 34°12' E 135°02'6 5.6
2014-Aug-16 09:33N 34°13' E 135°09'7 1.5
2014-Aug-16 05:09N 34°12' E 135°00'711.3
2014-Aug-16 04:33N 34°13' E 135°09'6 6.1
2014-Aug-16 03:33N 34°11' E 135°01'10 3.2
2014-Aug-16 00:29N 34°08' E 134°51'1516.4
2014-Aug-15 23:33N 34°13' E 135°08'2 2.0
2014-Aug-15 22:33N 34°13' E 135°05'19 5.9
2014-Aug-15 19:16N 34°06' E 134°43'1014.1
2014-Aug-15 18:33N 34°09' E 134°55'1212.0
2014-Aug-15 17:34N 34°13' E 135°09'10 9.8
2014-Aug-15 16:33N 34°10' E 134°57'11 4.4
2014-Aug-15 14:03N 34°05' E 134°45'1214.8
2014-Aug-15 13:16N 34°10' E 134°58'913.0
2014-Aug-15 12:33N 34°13' E 135°09'8 7.9
2014-Aug-15 11:32N 34°09' E 134°60'3 0.8
2014-Aug-15 08:11N 34°09' E 134°57'1016.0
2014-Aug-15 07:33N 34°13' E 135°08'1 0.6
2014-Aug-15 06:33N 34°13' E 135°09'8 1.8
2014-Aug-15 02:14N 34°10' E 134°60'811.8
2014-Aug-15 01:34N 34°13' E 135°09'5 4.7
2014-Aug-15 00:33N 34°13' E 135°03'7 2.2
2014-Aug-14 21:21N 34°09' E 134°56'1114.4
2014-Aug-14 20:33N 34°13' E 135°09'7 7.1
2014-Aug-14 19:33N 34°11' E 135°00'9 3.0
2014-Aug-14 16:32N 34°08' E 134°50'1515.7
2014-Aug-14 15:33N 34°13' E 135°08'19 4.8
2014-Aug-14 11:33N 34°06' E 134°46'1515.0
2014-Aug-14 10:33N 34°12' E 135°02'5 5.2
2014-Aug-14 09:33N 34°13' E 135°09'21 6.1
2014-Aug-14 06:08N 34°05' E 134°45'1116.9
2014-Aug-14 05:30N 34°12' E 134°56'1111.4
2014-Aug-14 04:33N 34°13' E 135°09'5 5.4
2014-Aug-14 03:33N 34°12' E 135°02'11 3.7
2014-Aug-14 00:31N 34°08' E 134°49'1617.0
2014-Aug-13 23:33N 34°13' E 135°08'0 0.4
2014-Aug-13 22:33N 34°13' E 135°08'24 7.8
2014-Aug-13 19:28N 34°04' E 134°40'1514.3
2014-Aug-13 18:24N 34°10' E 134°57'1011.8
2014-Aug-13 17:33N 34°13' E 135°09'10 9.7
2014-Aug-13 16:32N 34°10' E 134°57'15 6.6
2014-Aug-13 14:18N 34°04' E 134°41'2514.2
2014-Aug-13 12:33N 34°13' E 135°09'7 6.9
2014-Aug-13 11:33N 34°12' E 135°00'10 3.3
2014-Aug-13 08:32N 34°07' E 134°50'1616.5
2014-Aug-13 07:34N 34°13' E 135°08'0 0.2
2014-Aug-13 06:33N 34°13' E 135°08'11 2.6
2014-Aug-13 02:26N 34°10' E 134°56'1112.5
2014-Aug-13 01:33N 34°13' E 135°09'5 5.3
2014-Aug-13 00:33N 34°11' E 135°03'7 2.2
2014-Aug-12 21:22N 34°09' E 134°54'1215.4
2014-Aug-12 20:33N 34°13' E 135°09'5 4.8
2014-Aug-12 19:33N 34°12' E 135°03'10 3.4
2014-Aug-12 16:30N 34°09' E 134°51'1515.3
2014-Aug-12 15:33N 34°13' E 135°08'4 4.3
2014-Aug-12 14:33N 34°12' E 135°03'14 4.6
2014-Aug-12 11:29N 34°06' E 134°47'1314.4
2014-Aug-12 10:33N 34°12' E 135°02'5 5.4
2014-Aug-12 09:33N 34°13' E 135°09'11 2.7
2014-Aug-12 05:28N 34°09' E 134°56'1112.0
2014-Aug-12 04:33N 34°13' E 135°09'6 6.0
2014-Aug-12 03:34N 34°11' E 135°02'19 7.9
2014-Aug-12 01:09N 34°04' E 134°40'1216.0
2014-Aug-12 00:22N 34°09' E 134°54'1215.4
2014-Aug-11 23:33N 34°13' E 135°08'2 2.3
2014-Aug-11 22:33N 34°13' E 135°06'18 5.0
2014-Aug-11 19:04N 34°06' E 134°46'914.8
2014-Aug-11 18:28N 34°09' E 134°56'1112.3
2014-Aug-11 17:33N 34°13' E 135°09'0 0.0
2014-Aug-11 16:33N 34°13' E 135°09'0 0.0
2014-Aug-11 15:33N 34°13' E 135°09'5 5.4
2014-Aug-11 14:33N 34°12' E 135°02'15 5.0
2014-Aug-11 11:33N 34°06' E 134°46'1515.4
2014-Aug-11 10:33N 34°12' E 135°03'4 4.5
2014-Aug-11 09:34N 34°13' E 135°08'20 5.8
2014-Aug-11 06:05N 34°06' E 134°45'1114.8
2014-Aug-11 05:21N 34°09' E 134°58'  

Dump ship's entire track history